Terminal Aerodrome Forecast
Issued by NWS

Current Version | Previous Version | Text Only | Print | Product List | Glossary Off
Versions: 1 2 3 4 5 6 7 8 9 10 11 12 13 14 15 16 17 18 19 20 21 22 23 24 25 26 27 28 29 30 31 32 33

000
FTUS41 KRLX 171500 AAA
TAFCKB
TAF AMD
KCKB 171516Z 1715/1812 22007KT P6SM BKN035
     FM171700 20010G17KT P6SM SCT060
     FM180200 24009KT P6SM BKN040
     FM180900 27007KT P6SM OVC028=

USA.gov is the U.S. government's official web portal to all federal, state and local government web resources and services.